sensor_id;sensor_type;location;lat;lon;timestamp;P1;durP1;ratioP1;P2;durP2;ratioP2
17482;SDS011;8858;52.308;20.994;2023-07-30T00:00:42;5.50;;;5.00;;
17482;SDS011;8858;52.308;20.994;2023-07-30T00:03:10;5.30;;;4.82;;
17482;SDS011;8858;52.308;20.994;2023-07-30T00:05:39;5.53;;;4.63;;
17482;SDS011;8858;52.308;20.994;2023-07-30T00:08:08;5.70;;;4.93;;
17482;SDS011;8858;52.308;20.994;2023-07-30T00:10:37;6.35;;;5.50;;
17482;SDS011;8858;52.308;20.994;2023-07-30T00:13:09;6.65;;;5.95;;
17482;SDS011;8858;52.308;20.994;2023-07-30T00:15:41;6.75;;;6.10;;
17482;SDS011;8858;52.308;20.994;2023-07-30T00:18:09;6.40;;;5.70;;
17482;SDS011;8858;52.308;20.994;2023-07-30T00:20:38;6.68;;;6.07;;
17482;SDS011;8858;52.308;20.994;2023-07-30T00:23:07;6.85;;;6.00;;
17482;SDS011;8858;52.308;20.994;2023-07-30T00:25:40;6.72;;;6.07;;
17482;SDS011;8858;52.308;20.994;2023-07-30T00:28:08;6.88;;;6.30;;
17482;SDS011;8858;52.308;20.994;2023-07-30T00:30:37;7.53;;;6.82;;
17482;SDS011;8858;52.308;20.994;2023-07-30T00:33:06;6.68;;;6.05;;
17482;SDS011;8858;52.308;20.994;2023-07-30T00:35:35;7.03;;;6.43;;
17482;SDS011;8858;52.308;20.994;2023-07-30T00:38:06;6.75;;;6.25;;
17482;SDS011;8858;52.308;20.994;2023-07-30T00:40:40;6.53;;;5.93;;
17482;SDS011;8858;52.308;20.994;2023-07-30T00:43:09;7.68;;;6.78;;
17482;SDS011;8858;52.308;20.994;2023-07-30T00:45:38;6.55;;;6.03;;
17482;SDS011;8858;52.308;20.994;2023-07-30T00:48:10;6.53;;;6.03;;
17482;SDS011;8858;52.308;20.994;2023-07-30T00:50:40;6.35;;;5.85;;
17482;SDS011;8858;52.308;20.994;2023-07-30T00:53:09;6.57;;;5.82;;
17482;SDS011;8858;52.308;20.994;2023-07-30T00:55:40;9.10;;;6.32;;
17482;SDS011;8858;52.308;20.994;2023-07-30T00:58:09;6.03;;;5.47;;
17482;SDS011;8858;52.308;20.994;2023-07-30T01:00:38;6.50;;;5.90;;
17482;SDS011;8858;52.308;20.994;2023-07-30T01:03:08;5.40;;;5.00;;
17482;SDS011;8858;52.308;20.994;2023-07-30T01:05:36;5.32;;;4.82;;
17482;SDS011;8858;52.308;20.994;2023-07-30T01:08:05;5.07;;;4.60;;
17482;SDS011;8858;52.308;20.994;2023-07-30T01:10:33;6.72;;;4.97;;
17482;SDS011;8858;52.308;20.994;2023-07-30T01:13:09;5.72;;;4.68;;
17482;SDS011;8858;52.308;20.994;2023-07-30T01:15:39;4.53;;;4.20;;
17482;SDS011;8858;52.308;20.994;2023-07-30T01:18:08;5.05;;;4.55;;
17482;SDS011;8858;52.308;20.994;2023-07-30T01:20:37;5.70;;;3.88;;
17482;SDS011;8858;52.308;20.994;2023-07-30T01:23:06;4.30;;;3.85;;
17482;SDS011;8858;52.308;20.994;2023-07-30T01:25:36;4.00;;;3.72;;
17482;SDS011;8858;52.308;20.994;2023-07-30T01:28:05;4.07;;;3.72;;
17482;SDS011;8858;52.308;20.994;2023-07-30T01:30:38;4.25;;;3.85;;
17482;SDS011;8858;52.308;20.994;2023-07-30T01:33:10;3.85;;;3.55;;
17482;SDS011;8858;52.308;20.994;2023-07-30T01:35:39;3.58;;;3.28;;
17482;SDS011;8858;52.308;20.994;2023-07-30T01:38:15;3.67;;;3.40;;
17482;SDS011;8858;52.308;20.994;2023-07-30T01:40:46;3.50;;;3.30;;
17482;SDS011;8858;52.308;20.994;2023-07-30T01:43:15;3.38;;;3.15;;
17482;SDS011;8858;52.308;20.994;2023-07-30T01:45:43;3.40;;;3.20;;
17482;SDS011;8858;52.308;20.994;2023-07-30T01:48:12;3.63;;;3.33;;
17482;SDS011;8858;52.308;20.994;2023-07-30T01:50:40;3.20;;;3.00;;
17482;SDS011;8858;52.308;20.994;2023-07-30T01:53:10;3.30;;;3.05;;
17482;SDS011;8858;52.308;20.994;2023-07-30T01:55:39;3.72;;;3.30;;
17482;SDS011;8858;52.308;20.994;2023-07-30T01:58:10;3.60;;;3.30;;
17482;SDS011;8858;52.308;20.994;2023-07-30T02:00:39;3.38;;;3.05;;
17482;SDS011;8858;52.308;20.994;2023-07-30T02:03:12;4.40;;;3.03;;
17482;SDS011;8858;52.308;20.994;2023-07-30T02:05:41;3.00;;;2.80;;
17482;SDS011;8858;52.308;20.994;2023-07-30T02:08:10;3.60;;;3.40;;
17482;SDS011;8858;52.308;20.994;2023-07-30T02:10:41;3.30;;;3.10;;
17482;SDS011;8858;52.308;20.994;2023-07-30T02:13:11;4.45;;;3.22;;
17482;SDS011;8858;52.308;20.994;2023-07-30T02:15:40;3.75;;;3.40;;
17482;SDS011;8858;52.308;20.994;2023-07-30T02:18:10;3.63;;;3.33;;
17482;SDS011;8858;52.308;20.994;2023-07-30T02:20:38;4.47;;;3.08;;
17482;SDS011;8858;52.308;20.994;2023-07-30T02:23:06;3.58;;;3.30;;
17482;SDS011;8858;52.308;20.994;2023-07-30T02:25:35;4.78;;;3.58;;
17482;SDS011;8858;52.308;20.994;2023-07-30T02:28:08;3.05;;;2.85;;
17482;SDS011;8858;52.308;20.994;2023-07-30T02:30:40;3.47;;;3.20;;
17482;SDS011;8858;52.308;20.994;2023-07-30T02:33:09;4.05;;;3.65;;
17482;SDS011;8858;52.308;20.994;2023-07-30T02:35:38;3.97;;;3.70;;
17482;SDS011;8858;52.308;20.994;2023-07-30T02:38:06;5.18;;;3.70;;
17482;SDS011;8858;52.308;20.994;2023-07-30T02:40:35;4.03;;;3.60;;
17482;SDS011;8858;52.308;20.994;2023-07-30T02:43:04;4.00;;;3.63;;
17482;SDS011;8858;52.308;20.994;2023-07-30T02:45:34;4.05;;;3.75;;
17482;SDS011;8858;52.308;20.994;2023-07-30T02:48:03;4.10;;;3.70;;
17482;SDS011;8858;52.308;20.994;2023-07-30T02:50:32;4.50;;;4.10;;
17482;SDS011;8858;52.308;20.994;2023-07-30T02:53:04;5.82;;;4.10;;
17482;SDS011;8858;52.308;20.994;2023-07-30T02:55:33;4.78;;;4.30;;
17482;SDS011;8858;52.308;20.994;2023-07-30T02:58:01;4.63;;;4.20;;
17482;SDS011;8858;52.308;20.994;2023-07-30T03:00:29;4.32;;;3.92;;
17482;SDS011;8858;52.308;20.994;2023-07-30T03:02:59;4.95;;;4.18;;
17482;SDS011;8858;52.308;20.994;2023-07-30T03:05:31;4.75;;;4.35;;
17482;SDS011;8858;52.308;20.994;2023-07-30T03:08:00;5.13;;;4.57;;
17482;SDS011;8858;52.308;20.994;2023-07-30T03:10:28;4.38;;;3.97;;
17482;SDS011;8858;52.308;20.994;2023-07-30T03:12:57;5.47;;;4.32;;
17482;SDS011;8858;52.308;20.994;2023-07-30T03:15:27;4.30;;;4.00;;
17482;SDS011;8858;52.308;20.994;2023-07-30T03:17:59;4.00;;;3.70;;
17482;SDS011;8858;52.308;20.994;2023-07-30T03:20:27;5.40;;;4.30;;
17482;SDS011;8858;52.308;20.994;2023-07-30T03:22:56;4.75;;;4.13;;
17482;SDS011;8858;52.308;20.994;2023-07-30T03:25:25;3.80;;;3.50;;
17482;SDS011;8858;52.308;20.994;2023-07-30T03:27:53;4.00;;;3.60;;
17482;SDS011;8858;52.308;20.994;2023-07-30T03:30:22;5.32;;;3.60;;
17482;SDS011;8858;52.308;20.994;2023-07-30T03:32:51;5.28;;;3.80;;
17482;SDS011;8858;52.308;20.994;2023-07-30T03:35:25;4.25;;;3.78;;
17482;SDS011;8858;52.308;20.994;2023-07-30T03:37:53;4.32;;;3.95;;
17482;SDS011;8858;52.308;20.994;2023-07-30T03:40:22;5.18;;;3.78;;
17482;SDS011;8858;52.308;20.994;2023-07-30T03:42:51;4.47;;;4.05;;
17482;SDS011;8858;52.308;20.994;2023-07-30T03:45:20;4.72;;;4.28;;
17482;SDS011;8858;52.308;20.994;2023-07-30T03:47:48;4.07;;;3.70;;
17482;SDS011;8858;52.308;20.994;2023-07-30T03:50:17;4.45;;;4.10;;
17482;SDS011;8858;52.308;20.994;2023-07-30T03:52:48;4.38;;;4.05;;
17482;SDS011;8858;52.308;20.994;2023-07-30T03:55:16;4.20;;;3.90;;
17482;SDS011;8858;52.308;20.994;2023-07-30T03:57:45;3.95;;;3.50;;
17482;SDS011;8858;52.308;20.994;2023-07-30T04:00:17;4.10;;;3.80;;
17482;SDS011;8858;52.308;20.994;2023-07-30T04:02:45;4.25;;;3.85;;
17482;SDS011;8858;52.308;20.994;2023-07-30T04:05:13;4.90;;;4.47;;
17482;SDS011;8858;52.308;20.994;2023-07-30T04:07:42;4.97;;;4.40;;
17482;SDS011;8858;52.308;20.994;2023-07-30T04:10:12;4.45;;;3.90;;
17482;SDS011;8858;52.308;20.994;2023-07-30T04:12:41;5.20;;;4.15;;
17482;SDS011;8858;52.308;20.994;2023-07-30T04:15:09;4.53;;;4.10;;
17482;SDS011;8858;52.308;20.994;2023-07-30T04:17:38;5.85;;;4.03;;
17482;SDS011;8858;52.308;20.994;2023-07-30T04:20:08;4.03;;;3.72;;
17482;SDS011;8858;52.308;20.994;2023-07-30T04:22:37;4.78;;;3.80;;
17482;SDS011;8858;52.308;20.994;2023-07-30T04:25:08;6.05;;;4.68;;
17482;SDS011;8858;52.308;20.994;2023-07-30T04:27:39;4.82;;;4.53;;
17482;SDS011;8858;52.308;20.994;2023-07-30T04:30:11;4.82;;;4.53;;
17482;SDS011;8858;52.308;20.994;2023-07-30T04:32:40;5.13;;;4.63;;
17482;SDS011;8858;52.308;20.994;2023-07-30T04:35:08;4.82;;;4.45;;
17482;SDS011;8858;52.308;20.994;2023-07-30T04:37:38;8.00;;;5.10;;
17482;SDS011;8858;52.308;20.994;2023-07-30T04:40:07;5.60;;;5.00;;
17482;SDS011;8858;52.308;20.994;2023-07-30T04:42:36;5.53;;;5.13;;
17482;SDS011;8858;52.308;20.994;2023-07-30T04:45:07;5.93;;;5.47;;
17482;SDS011;8858;52.308;20.994;2023-07-30T04:47:39;6.05;;;5.55;;
17482;SDS011;8858;52.308;20.994;2023-07-30T04:50:10;7.88;;;6.25;;
17482;SDS011;8858;52.308;20.994;2023-07-30T04:52:39;6.22;;;5.63;;
17482;SDS011;8858;52.308;20.994;2023-07-30T04:55:09;5.90;;;5.45;;
17482;SDS011;8858;52.308;20.994;2023-07-30T04:57:37;5.70;;;5.20;;
17482;SDS011;8858;52.308;20.994;2023-07-30T05:00:07;6.03;;;5.50;;
17482;SDS011;8858;52.308;20.994;2023-07-30T05:02:38;5.28;;;4.78;;
17482;SDS011;8858;52.308;20.994;2023-07-30T05:05:07;6.93;;;4.78;;
17482;SDS011;8858;52.308;20.994;2023-07-30T05:07:36;6.60;;;3.97;;
17482;SDS011;8858;52.308;20.994;2023-07-30T05:10:05;8.15;;;3.40;;
17482;SDS011;8858;52.308;20.994;2023-07-30T05:12:37;4.22;;;3.33;;
17482;SDS011;8858;52.308;20.994;2023-07-30T05:15:09;3.95;;;2.63;;
17482;SDS011;8858;52.308;20.994;2023-07-30T05:17:37;3.13;;;2.92;;
17482;SDS011;8858;52.308;20.994;2023-07-30T05:20:06;3.45;;;3.15;;
17482;SDS011;8858;52.308;20.994;2023-07-30T05:22:38;5.13;;;3.50;;
17482;SDS011;8858;52.308;20.994;2023-07-30T05:25:09;4.18;;;3.40;;
17482;SDS011;8858;52.308;20.994;2023-07-30T05:27:37;3.60;;;3.10;;
17482;SDS011;8858;52.308;20.994;2023-07-30T05:30:06;3.33;;;3.03;;
17482;SDS011;8858;52.308;20.994;2023-07-30T05:32:37;4.45;;;3.22;;
17482;SDS011;8858;52.308;20.994;2023-07-30T05:35:07;5.55;;;3.83;;
17482;SDS011;8858;52.308;20.994;2023-07-30T05:37:36;3.30;;;3.10;;
17482;SDS011;8858;52.308;20.994;2023-07-30T05:40:05;3.92;;;3.20;;
17482;SDS011;8858;52.308;20.994;2023-07-30T05:42:35;4.18;;;3.17;;
17482;SDS011;8858;52.308;20.994;2023-07-30T05:45:04;3.50;;;3.25;;
17482;SDS011;8858;52.308;20.994;2023-07-30T05:47:34;3.75;;;3.05;;
17482;SDS011;8858;52.308;20.994;2023-07-30T05:50:04;2.83;;;2.63;;
17482;SDS011;8858;52.308;20.994;2023-07-30T05:52:34;4.50;;;2.90;;
17482;SDS011;8858;52.308;20.994;2023-07-30T05:55:03;3.33;;;3.10;;
17482;SDS011;8858;52.308;20.994;2023-07-30T05:57:32;3.08;;;2.83;;
17482;SDS011;8858;52.308;20.994;2023-07-30T06:00:03;3.50;;;3.30;;
17482;SDS011;8858;52.308;20.994;2023-07-30T06:02:37;4.25;;;3.38;;
17482;SDS011;8858;52.308;20.994;2023-07-30T06:05:07;4.28;;;3.22;;
17482;SDS011;8858;52.308;20.994;2023-07-30T06:07:36;9.60;;;3.47;;
17482;SDS011;8858;52.308;20.994;2023-07-30T06:10:05;3.40;;;3.10;;
17482;SDS011;8858;52.308;20.994;2023-07-30T06:12:34;3.40;;;3.10;;
17482;SDS011;8858;52.308;20.994;2023-07-30T06:15:02;4.43;;;3.05;;
17482;SDS011;8858;52.308;20.994;2023-07-30T06:17:34;3.10;;;2.70;;
17482;SDS011;8858;52.308;20.994;2023-07-30T06:20:03;5.75;;;3.05;;
17482;SDS011;8858;52.308;20.994;2023-07-30T06:22:33;3.88;;;2.90;;
17482;SDS011;8858;52.308;20.994;2023-07-30T06:25:01;3.30;;;2.88;;
17482;SDS011;8858;52.308;20.994;2023-07-30T06:27:31;6.43;;;3.05;;
17482;SDS011;8858;52.308;20.994;2023-07-30T06:29:59;4.30;;;3.00;;
17482;SDS011;8858;52.308;20.994;2023-07-30T06:32:27;7.70;;;3.50;;
17482;SDS011;8858;52.308;20.994;2023-07-30T06:34:56;4.25;;;3.33;;
17482;SDS011;8858;52.308;20.994;2023-07-30T06:37:27;6.57;;;3.15;;
17482;SDS011;8858;52.308;20.994;2023-07-30T06:39:57;4.10;;;2.72;;
17482;SDS011;8858;52.308;20.994;2023-07-30T06:42:25;6.53;;;3.05;;
17482;SDS011;8858;52.308;20.994;2023-07-30T06:44:54;5.95;;;2.95;;
17482;SDS011;8858;52.308;20.994;2023-07-30T06:47:22;5.75;;;3.35;;
17482;SDS011;8858;52.308;20.994;2023-07-30T06:49:54;2.95;;;2.75;;
17482;SDS011;8858;52.308;20.994;2023-07-30T06:52:23;3.75;;;3.45;;
17482;SDS011;8858;52.308;20.994;2023-07-30T06:54:51;4.75;;;3.50;;
17482;SDS011;8858;52.308;20.994;2023-07-30T06:57:21;4.03;;;3.60;;
17482;SDS011;8858;52.308;20.994;2023-07-30T06:59:50;4.82;;;4.00;;
17482;SDS011;8858;52.308;20.994;2023-07-30T07:02:18;3.83;;;3.53;;
17482;SDS011;8858;52.308;20.994;2023-07-30T07:04:46;5.22;;;3.28;;
17482;SDS011;8858;52.308;20.994;2023-07-30T07:07:15;6.95;;;3.60;;
17482;SDS011;8858;52.308;20.994;2023-07-30T07:09:44;3.67;;;3.38;;
17482;SDS011;8858;52.308;20.994;2023-07-30T07:12:13;4.97;;;3.90;;
17482;SDS011;8858;52.308;20.994;2023-07-30T07:14:43;3.50;;;3.30;;
17482;SDS011;8858;52.308;20.994;2023-07-30T07:17:11;4.35;;;3.33;;
17482;SDS011;8858;52.308;20.994;2023-07-30T07:19:39;4.78;;;3.20;;
17482;SDS011;8858;52.308;20.994;2023-07-30T07:22:10;5.20;;;3.78;;
17482;SDS011;8858;52.308;20.994;2023-07-30T07:24:41;5.93;;;3.97;;
17482;SDS011;8858;52.308;20.994;2023-07-30T07:27:09;4.45;;;4.05;;
17482;SDS011;8858;52.308;20.994;2023-07-30T07:29:38;3.92;;;3.60;;
17482;SDS011;8858;52.308;20.994;2023-07-30T07:32:08;4.18;;;3.67;;
17482;SDS011;8858;52.308;20.994;2023-07-30T07:34:40;3.75;;;3.50;;
17482;SDS011;8858;52.308;20.994;2023-07-30T07:37:08;4.93;;;3.47;;
17482;SDS011;8858;52.308;20.994;2023-07-30T07:39:36;4.15;;;3.75;;
17482;SDS011;8858;52.308;20.994;2023-07-30T07:42:05;4.30;;;4.00;;
17482;SDS011;8858;52.308;20.994;2023-07-30T07:44:33;4.07;;;3.70;;
17482;SDS011;8858;52.308;20.994;2023-07-30T07:47:02;4.75;;;4.28;;
17482;SDS011;8858;52.308;20.994;2023-07-30T07:49:32;7.28;;;4.45;;
17482;SDS011;8858;52.308;20.994;2023-07-30T07:52:02;5.53;;;4.68;;
17482;SDS011;8858;52.308;20.994;2023-07-30T07:54:31;4.95;;;4.55;;
17482;SDS011;8858;52.308;20.994;2023-07-30T07:57:00;6.80;;;6.07;;
17482;SDS011;8858;52.308;20.994;2023-07-30T07:59:28;5.57;;;5.15;;
17482;SDS011;8858;52.308;20.994;2023-07-30T08:01:56;5.32;;;4.63;;
17482;SDS011;8858;52.308;20.994;2023-07-30T08:04:25;5.07;;;4.68;;
17482;SDS011;8858;52.308;20.994;2023-07-30T08:06:57;4.35;;;3.95;;
17482;SDS011;8858;52.308;20.994;2023-07-30T08:09:26;4.70;;;4.25;;
17482;SDS011;8858;52.308;20.994;2023-07-30T08:11:55;6.65;;;4.07;;
17482;SDS011;8858;52.308;20.994;2023-07-30T08:14:23;4.75;;;3.65;;
17482;SDS011;8858;52.308;20.994;2023-07-30T08:16:51;5.38;;;3.70;;
17482;SDS011;8858;52.308;20.994;2023-07-30T08:19:22;5.25;;;3.72;;
17482;SDS011;8858;52.308;20.994;2023-07-30T08:21:50;4.60;;;3.80;;
17482;SDS011;8858;52.308;20.994;2023-07-30T08:24:20;4.28;;;3.53;;
17482;SDS011;8858;52.308;20.994;2023-07-30T08:26:49;4.85;;;3.83;;
17482;SDS011;8858;52.308;20.994;2023-07-30T08:29:18;4.13;;;3.72;;
17482;SDS011;8858;52.308;20.994;2023-07-30T08:31:46;3.60;;;3.30;;
17482;SDS011;8858;52.308;20.994;2023-07-30T08:34:14;3.92;;;3.58;;
17482;SDS011;8858;52.308;20.994;2023-07-30T08:36:42;3.75;;;3.17;;
17482;SDS011;8858;52.308;20.994;2023-07-30T08:39:11;4.03;;;3.33;;
17482;SDS011;8858;52.308;20.994;2023-07-30T08:41:40;3.88;;;3.20;;
17482;SDS011;8858;52.308;20.994;2023-07-30T08:44:09;4.22;;;3.53;;
17482;SDS011;8858;52.308;20.994;2023-07-30T08:46:38;5.50;;;3.47;;
17482;SDS011;8858;52.308;20.994;2023-07-30T08:49:06;4.00;;;3.30;;
17482;SDS011;8858;52.308;20.994;2023-07-30T08:51:35;4.95;;;3.30;;
17482;SDS011;8858;52.308;20.994;2023-07-30T08:54:05;5.28;;;3.30;;
17482;SDS011;8858;52.308;20.994;2023-07-30T08:56:38;3.40;;;3.10;;
17482;SDS011;8858;52.308;20.994;2023-07-30T08:59:08;3.65;;;3.33;;
17482;SDS011;8858;52.308;20.994;2023-07-30T09:01:38;6.00;;;3.58;;
17482;SDS011;8858;52.308;20.994;2023-07-30T09:04:07;5.15;;;3.17;;
17482;SDS011;8858;52.308;20.994;2023-07-30T09:06:38;4.88;;;2.85;;
17482;SDS011;8858;52.308;20.994;2023-07-30T09:09:07;3.60;;;3.30;;
17482;SDS011;8858;52.308;20.994;2023-07-30T09:11:38;3.92;;;3.53;;
17482;SDS011;8858;52.308;20.994;2023-07-30T09:14:07;5.47;;;3.42;;
17482;SDS011;8858;52.308;20.994;2023-07-30T09:16:36;7.45;;;3.65;;
17482;SDS011;8858;52.308;20.994;2023-07-30T09:19:05;4.10;;;2.95;;
17482;SDS011;8858;52.308;20.994;2023-07-30T09:21:34;7.30;;;3.50;;
17482;SDS011;8858;52.308;20.994;2023-07-30T09:24:03;3.65;;;3.35;;
17482;SDS011;8858;52.308;20.994;2023-07-30T09:26:39;4.63;;;3.60;;
17482;SDS011;8858;52.308;20.994;2023-07-30T09:29:11;3.33;;;3.13;;
17482;SDS011;8858;52.308;20.994;2023-07-30T09:31:43;3.40;;;3.10;;
17482;SDS011;8858;52.308;20.994;2023-07-30T09:34:16;3.30;;;3.00;;
17482;SDS011;8858;52.308;20.994;2023-07-30T09:36:44;3.53;;;3.22;;
17482;SDS011;8858;52.308;20.994;2023-07-30T09:39:19;3.42;;;3.15;;
17482;SDS011;8858;52.308;20.994;2023-07-30T09:41:49;3.67;;;3.40;;
17482;SDS011;8858;52.308;20.994;2023-07-30T09:44:20;4.13;;;3.83;;
17482;SDS011;8858;52.308;20.994;2023-07-30T09:46:49;3.67;;;3.38;;
17482;SDS011;8858;52.308;20.994;2023-07-30T09:49:17;3.75;;;3.40;;
17482;SDS011;8858;52.308;20.994;2023-07-30T09:51:50;3.88;;;3.35;;
17482;SDS011;8858;52.308;20.994;2023-07-30T09:54:19;3.80;;;3.25;;
17482;SDS011;8858;52.308;20.994;2023-07-30T09:56:48;4.72;;;3.40;;
17482;SDS011;8858;52.308;20.994;2023-07-30T09:59:17;4.43;;;4.03;;
17482;SDS011;8858;52.308;20.994;2023-07-30T10:01:47;3.45;;;3.15;;
17482;SDS011;8858;52.308;20.994;2023-07-30T10:04:18;3.40;;;3.10;;
17482;SDS011;8858;52.308;20.994;2023-07-30T10:06:49;3.70;;;3.40;;
17482;SDS011;8858;52.308;20.994;2023-07-30T10:09:22;4.32;;;2.80;;
17482;SDS011;8858;52.308;20.994;2023-07-30T10:11:53;3.55;;;3.20;;
17482;SDS011;8858;52.308;20.994;2023-07-30T10:14:22;2.72;;;2.60;;
17482;SDS011;8858;52.308;20.994;2023-07-30T10:16:55;3.20;;;2.90;;
17482;SDS011;8858;52.308;20.994;2023-07-30T10:19:25;3.35;;;2.75;;
17482;SDS011;8858;52.308;20.994;2023-07-30T10:21:57;2.80;;;2.60;;
17482;SDS011;8858;52.308;20.994;2023-07-30T10:24:27;3.55;;;2.83;;
17482;SDS011;8858;52.308;20.994;2023-07-30T10:26:55;4.18;;;3.78;;
17482;SDS011;8858;52.308;20.994;2023-07-30T10:29:25;3.38;;;2.83;;
17482;SDS011;8858;52.308;20.994;2023-07-30T10:31:55;3.20;;;2.90;;
17482;SDS011;8858;52.308;20.994;2023-07-30T10:34:25;3.30;;;3.10;;
17482;SDS011;8858;52.308;20.994;2023-07-30T10:36:55;2.33;;;2.22;;
17482;SDS011;8858;52.308;20.994;2023-07-30T10:39:25;2.78;;;2.58;;
17482;SDS011;8858;52.308;20.994;2023-07-30T10:41:55;3.58;;;2.90;;
17482;SDS011;8858;52.308;20.994;2023-07-30T10:44:30;3.13;;;2.92;;
17482;SDS011;8858;52.308;20.994;2023-07-30T10:47:01;3.03;;;2.70;;
17482;SDS011;8858;52.308;20.994;2023-07-30T10:49:35;2.70;;;2.50;;
17482;SDS011;8858;52.308;20.994;2023-07-30T10:52:04;3.60;;;3.30;;
17482;SDS011;8858;52.308;20.994;2023-07-30T10:54:33;2.83;;;2.63;;
17482;SDS011;8858;52.308;20.994;2023-07-30T10:57:02;3.13;;;2.85;;
17482;SDS011;8858;52.308;20.994;2023-07-30T10:59:32;4.00;;;2.67;;
17482;SDS011;8858;52.308;20.994;2023-07-30T11:02:04;4.90;;;3.00;;
17482;SDS011;8858;52.308;20.994;2023-07-30T11:04:35;3.10;;;2.80;;
17482;SDS011;8858;52.308;20.994;2023-07-30T11:07:03;2.67;;;2.50;;
17482;SDS011;8858;52.308;20.994;2023-07-30T11:09:32;2.90;;;2.70;;
17482;SDS011;8858;52.308;20.994;2023-07-30T11:12:00;3.03;;;2.63;;
17482;SDS011;8858;52.308;20.994;2023-07-30T11:14:30;2.90;;;2.70;;
17482;SDS011;8858;52.308;20.994;2023-07-30T11:16:59;2.90;;;2.70;;
17482;SDS011;8858;52.308;20.994;2023-07-30T11:19:29;3.47;;;2.88;;
17482;SDS011;8858;52.308;20.994;2023-07-30T11:21:59;3.65;;;2.63;;
17482;SDS011;8858;52.308;20.994;2023-07-30T11:24:34;3.83;;;2.95;;
17482;SDS011;8858;52.308;20.994;2023-07-30T11:27:06;3.28;;;3.03;;
17482;SDS011;8858;52.308;20.994;2023-07-30T11:29:34;2.72;;;2.53;;
17482;SDS011;8858;52.308;20.994;2023-07-30T11:32:04;3.05;;;2.85;;
17482;SDS011;8858;52.308;20.994;2023-07-30T11:34:33;2.95;;;2.70;;
17482;SDS011;8858;52.308;20.994;2023-07-30T11:37:05;3.20;;;2.90;;
17482;SDS011;8858;52.308;20.994;2023-07-30T11:39:35;2.60;;;2.50;;
17482;SDS011;8858;52.308;20.994;2023-07-30T11:42:04;2.70;;;2.50;;
17482;SDS011;8858;52.308;20.994;2023-07-30T11:44:33;3.10;;;2.90;;
17482;SDS011;8858;52.308;20.994;2023-07-30T11:47:05;2.63;;;2.53;;
17482;SDS011;8858;52.308;20.994;2023-07-30T11:49:34;3.90;;;3.10;;
17482;SDS011;8858;52.308;20.994;2023-07-30T11:52:06;3.10;;;2.90;;
17482;SDS011;8858;52.308;20.994;2023-07-30T11:54:36;3.10;;;2.90;;
17482;SDS011;8858;52.308;20.994;2023-07-30T11:57:04;2.90;;;2.70;;
17482;SDS011;8858;52.308;20.994;2023-07-30T11:59:34;2.75;;;2.65;;
17482;SDS011;8858;52.308;20.994;2023-07-30T12:02:05;3.25;;;2.92;;
17482;SDS011;8858;52.308;20.994;2023-07-30T12:04:43;3.20;;;3.00;;
17482;SDS011;8858;52.308;20.994;2023-07-30T12:07:27;3.35;;;3.15;;
17482;SDS011;8858;52.308;20.994;2023-07-30T12:09:58;3.65;;;3.35;;
17482;SDS011;8858;52.308;20.994;2023-07-30T12:12:35;3.92;;;2.63;;
17482;SDS011;8858;52.308;20.994;2023-07-30T12:15:09;3.25;;;3.05;;
17482;SDS011;8858;52.308;20.994;2023-07-30T12:17:42;2.60;;;2.40;;
17482;SDS011;8858;52.308;20.994;2023-07-30T12:20:12;3.30;;;3.10;;
17482;SDS011;8858;52.308;20.994;2023-07-30T12:22:40;3.08;;;2.75;;
17482;SDS011;8858;52.308;20.994;2023-07-30T12:25:10;2.80;;;2.55;;
17482;SDS011;8858;52.308;20.994;2023-07-30T12:27:38;3.53;;;2.70;;
17482;SDS011;8858;52.308;20.994;2023-07-30T12:30:10;3.17;;;2.75;;
17482;SDS011;8858;52.308;20.994;2023-07-30T12:32:39;2.90;;;2.70;;
17482;SDS011;8858;52.308;20.994;2023-07-30T12:35:07;2.78;;;2.67;;
17482;SDS011;8858;52.308;20.994;2023-07-30T12:37:37;3.92;;;3.38;;
17482;SDS011;8858;52.308;20.994;2023-07-30T12:40:06;2.67;;;2.53;;
17482;SDS011;8858;52.308;20.994;2023-07-30T12:42:38;2.78;;;2.58;;
17482;SDS011;8858;52.308;20.994;2023-07-30T12:45:07;3.00;;;2.80;;
17482;SDS011;8858;52.308;20.994;2023-07-30T12:47:35;3.97;;;2.97;;
17482;SDS011;8858;52.308;20.994;2023-07-30T12:50:04;3.00;;;2.75;;
17482;SDS011;8858;52.308;20.994;2023-07-30T12:52:33;2.90;;;2.70;;
17482;SDS011;8858;52.308;20.994;2023-07-30T12:55:07;3.03;;;2.83;;
17482;SDS011;8858;52.308;20.994;2023-07-30T12:57:36;3.22;;;2.90;;
17482;SDS011;8858;52.308;20.994;2023-07-30T13:00:05;6.07;;;2.85;;
17482;SDS011;8858;52.308;20.994;2023-07-30T13:02:34;2.72;;;2.55;;
17482;SDS011;8858;52.308;20.994;2023-07-30T13:05:02;2.78;;;2.58;;
17482;SDS011;8858;52.308;20.994;2023-07-30T13:07:34;3.78;;;2.42;;
17482;SDS011;8858;52.308;20.994;2023-07-30T13:10:06;2.42;;;2.25;;
17482;SDS011;8858;52.308;20.994;2023-07-30T13:12:42;2.58;;;2.40;;
17482;SDS011;8858;52.308;20.994;2023-07-30T13:15:10;2.80;;;2.60;;
17482;SDS011;8858;52.308;20.994;2023-07-30T13:17:39;2.80;;;2.60;;
17482;SDS011;8858;52.308;20.994;2023-07-30T13:20:07;2.70;;;2.50;;
17482;SDS011;8858;52.308;20.994;2023-07-30T13:22:36;2.90;;;2.22;;
17482;SDS011;8858;52.308;20.994;2023-07-30T13:25:11;3.08;;;2.47;;
17482;SDS011;8858;52.308;20.994;2023-07-30T13:27:41;3.15;;;2.30;;
17482;SDS011;8858;52.308;20.994;2023-07-30T13:30:09;2.65;;;2.35;;
17482;SDS011;8858;52.308;20.994;2023-07-30T13:32:38;2.40;;;2.20;;
17482;SDS011;8858;52.308;20.994;2023-07-30T13:35:06;3.45;;;2.40;;
17482;SDS011;8858;52.308;20.994;2023-07-30T13:37:39;2.88;;;2.17;;
17482;SDS011;8858;52.308;20.994;2023-07-30T13:40:08;2.60;;;2.38;;
17482;SDS011;8858;52.308;20.994;2023-07-30T13:42:38;2.60;;;2.50;;
17482;SDS011;8858;52.308;20.994;2023-07-30T13:45:07;2.97;;;2.78;;
17482;SDS011;8858;52.308;20.994;2023-07-30T13:47:36;2.92;;;2.78;;
17482;SDS011;8858;52.308;20.994;2023-07-30T13:50:07;3.20;;;3.00;;
17482;SDS011;8858;52.308;20.994;2023-07-30T13:52:36;3.42;;;3.13;;
17482;SDS011;8858;52.308;20.994;2023-07-30T13:55:04;3.72;;;3.42;;
17482;SDS011;8858;52.308;20.994;2023-07-30T13:57:33;3.78;;;3.35;;
17482;SDS011;8858;52.308;20.994;2023-07-30T14:00:04;5.25;;;4.15;;
17482;SDS011;8858;52.308;20.994;2023-07-30T14:02:36;6.03;;;4.82;;
17482;SDS011;8858;52.308;20.994;2023-07-30T14:05:05;4.78;;;4.38;;
17482;SDS011;8858;52.308;20.994;2023-07-30T14:07:33;4.75;;;4.32;;
17482;SDS011;8858;52.308;20.994;2023-07-30T14:10:02;6.85;;;4.97;;
17482;SDS011;8858;52.308;20.994;2023-07-30T14:12:30;6.28;;;5.00;;
17482;SDS011;8858;52.308;20.994;2023-07-30T14:14:58;5.97;;;4.85;;
17482;SDS011;8858;52.308;20.994;2023-07-30T14:17:28;7.25;;;4.75;;
17482;SDS011;8858;52.308;20.994;2023-07-30T14:19:59;4.78;;;4.05;;
17482;SDS011;8858;52.308;20.994;2023-07-30T14:22:29;5.47;;;4.40;;
17482;SDS011;8858;52.308;20.994;2023-07-30T14:24:58;7.53;;;4.90;;
17482;SDS011;8858;52.308;20.994;2023-07-30T14:27:26;8.60;;;5.20;;
17482;SDS011;8858;52.308;20.994;2023-07-30T14:29:54;6.60;;;4.65;;
17482;SDS011;8858;52.308;20.994;2023-07-30T14:32:22;6.60;;;4.57;;
17482;SDS011;8858;52.308;20.994;2023-07-30T14:34:57;5.03;;;4.53;;
17482;SDS011;8858;52.308;20.994;2023-07-30T14:37:26;4.60;;;4.20;;
17482;SDS011;8858;52.308;20.994;2023-07-30T14:39:54;4.22;;;3.92;;
17482;SDS011;8858;52.308;20.994;2023-07-30T14:42:23;4.22;;;3.72;;
17482;SDS011;8858;52.308;20.994;2023-07-30T14:44:51;5.13;;;4.63;;
17482;SDS011;8858;52.308;20.994;2023-07-30T14:47:24;4.10;;;3.80;;
17482;SDS011;8858;52.308;20.994;2023-07-30T14:49:53;3.63;;;3.42;;
17482;SDS011;8858;52.308;20.994;2023-07-30T14:52:22;4.10;;;3.80;;
17482;SDS011;8858;52.308;20.994;2023-07-30T14:54:51;4.57;;;4.20;;
17482;SDS011;8858;52.308;20.994;2023-07-30T14:57:19;4.65;;;3.60;;
17482;SDS011;8858;52.308;20.994;2023-07-30T14:59:48;4.30;;;3.70;;
17482;SDS011;8858;52.308;20.994;2023-07-30T15:02:16;4.38;;;4.00;;